sensor_id;sensor_type;location;lat;lon;timestamp;P1;durP1;ratioP1;P2;durP2;ratioP2
20567;SDS011;10442;49.932;11.592;2022-08-21T00:01:40;12.02;;;10.93;;
20567;SDS011;10442;49.932;11.592;2022-08-21T00:04:08;11.55;;;10.55;;
20567;SDS011;10442;49.932;11.592;2022-08-21T00:06:36;13.65;;;12.40;;
20567;SDS011;10442;49.932;11.592;2022-08-21T00:09:05;13.10;;;11.77;;
20567;SDS011;10442;49.932;11.592;2022-08-21T00:11:34;13.20;;;11.98;;
20567;SDS011;10442;49.932;11.592;2022-08-21T00:14:03;12.05;;;10.98;;
20567;SDS011;10442;49.932;11.592;2022-08-21T00:16:31;15.02;;;11.20;;
20567;SDS011;10442;49.932;11.592;2022-08-21T00:18:59;11.05;;;10.05;;
20567;SDS011;10442;49.932;11.592;2022-08-21T00:21:26;12.57;;;11.27;;
20567;SDS011;10442;49.932;11.592;2022-08-21T00:23:54;13.43;;;11.25;;
20567;SDS011;10442;49.932;11.592;2022-08-21T00:26:21;11.70;;;10.60;;
20567;SDS011;10442;49.932;11.592;2022-08-21T00:28:49;11.75;;;10.65;;
20567;SDS011;10442;49.932;11.592;2022-08-21T00:31:16;12.90;;;11.70;;
20567;SDS011;10442;49.932;11.592;2022-08-21T00:33:44;13.23;;;12.00;;
20567;SDS011;10442;49.932;11.592;2022-08-21T00:36:12;15.57;;;12.90;;
20567;SDS011;10442;49.932;11.592;2022-08-21T00:38:40;11.77;;;10.73;;
20567;SDS011;10442;49.932;11.592;2022-08-21T00:41:08;13.95;;;12.57;;
20567;SDS011;10442;49.932;11.592;2022-08-21T00:43:58;14.75;;;13.15;;
20567;SDS011;10442;49.932;11.592;2022-08-21T00:46:25;15.82;;;12.40;;
20567;SDS011;10442;49.932;11.592;2022-08-21T00:48:55;17.77;;;12.18;;
20567;SDS011;10442;49.932;11.592;2022-08-21T00:51:25;17.15;;;11.95;;
20567;SDS011;10442;49.932;11.592;2022-08-21T00:54:04;14.40;;;10.88;;
20567;SDS011;10442;49.932;11.592;2022-08-21T00:56:43;12.93;;;10.38;;
20567;SDS011;10442;49.932;11.592;2022-08-21T00:59:14;11.90;;;10.77;;
20567;SDS011;10442;49.932;11.592;2022-08-21T01:01:44;12.65;;;11.43;;
20567;SDS011;10442;49.932;11.592;2022-08-21T01:04:13;11.65;;;10.50;;
20567;SDS011;10442;49.932;11.592;2022-08-21T01:06:42;11.40;;;10.35;;
20567;SDS011;10442;49.932;11.592;2022-08-21T01:09:10;12.43;;;10.15;;
20567;SDS011;10442;49.932;11.592;2022-08-21T01:11:38;14.00;;;10.35;;
20567;SDS011;10442;49.932;11.592;2022-08-21T01:14:09;12.80;;;11.52;;
20567;SDS011;10442;49.932;11.592;2022-08-21T01:16:40;9.43;;;8.68;;
20567;SDS011;10442;49.932;11.592;2022-08-21T01:19:11;12.20;;;11.10;;
20567;SDS011;10442;49.932;11.592;2022-08-21T01:21:40;12.52;;;11.25;;
20567;SDS011;10442;49.932;11.592;2022-08-21T01:24:10;12.07;;;10.77;;
20567;SDS011;10442;49.932;11.592;2022-08-21T01:26:38;13.48;;;12.07;;
20567;SDS011;10442;49.932;11.592;2022-08-21T01:29:14;12.68;;;11.57;;
20567;SDS011;10442;49.932;11.592;2022-08-21T01:31:43;12.60;;;11.40;;
20567;SDS011;10442;49.932;11.592;2022-08-21T01:34:11;13.57;;;12.38;;
20567;SDS011;10442;49.932;11.592;2022-08-21T01:36:39;14.35;;;13.15;;
20567;SDS011;10442;49.932;11.592;2022-08-21T01:39:07;12.68;;;11.50;;
20567;SDS011;10442;49.932;11.592;2022-08-21T01:41:34;12.43;;;11.32;;
20567;SDS011;10442;49.932;11.592;2022-08-21T01:44:02;12.65;;;11.23;;
20567;SDS011;10442;49.932;11.592;2022-08-21T01:46:30;11.52;;;10.60;;
20567;SDS011;10442;49.932;11.592;2022-08-21T01:48:58;11.07;;;10.18;;
20567;SDS011;10442;49.932;11.592;2022-08-21T01:51:26;12.90;;;11.85;;
20567;SDS011;10442;49.932;11.592;2022-08-21T01:53:53;11.00;;;10.18;;
20567;SDS011;10442;49.932;11.592;2022-08-21T01:56:21;11.90;;;10.90;;
20567;SDS011;10442;49.932;11.592;2022-08-21T01:58:49;9.95;;;9.05;;
20567;SDS011;10442;49.932;11.592;2022-08-21T02:01:16;11.27;;;10.10;;
20567;SDS011;10442;49.932;11.592;2022-08-21T02:03:44;10.30;;;9.50;;
20567;SDS011;10442;49.932;11.592;2022-08-21T02:06:12;11.85;;;10.88;;
20567;SDS011;10442;49.932;11.592;2022-08-21T02:08:44;9.80;;;9.00;;
20567;SDS011;10442;49.932;11.592;2022-08-21T02:11:12;11.77;;;10.88;;
20567;SDS011;10442;49.932;11.592;2022-08-21T02:13:40;10.80;;;9.88;;
20567;SDS011;10442;49.932;11.592;2022-08-21T02:16:07;11.00;;;10.13;;
20567;SDS011;10442;49.932;11.592;2022-08-21T02:18:36;8.75;;;8.07;;
20567;SDS011;10442;49.932;11.592;2022-08-21T02:21:04;8.95;;;8.18;;
20567;SDS011;10442;49.932;11.592;2022-08-21T02:23:32;9.82;;;9.00;;
20567;SDS011;10442;49.932;11.592;2022-08-21T02:26:01;7.88;;;7.30;;
20567;SDS011;10442;49.932;11.592;2022-08-21T02:28:31;9.43;;;8.73;;
20567;SDS011;10442;49.932;11.592;2022-08-21T02:31:00;10.38;;;9.48;;
20567;SDS011;10442;49.932;11.592;2022-08-21T02:33:28;10.48;;;9.65;;
20567;SDS011;10442;49.932;11.592;2022-08-21T02:35:55;10.98;;;9.32;;
20567;SDS011;10442;49.932;11.592;2022-08-21T02:38:25;10.75;;;9.93;;
20567;SDS011;10442;49.932;11.592;2022-08-21T02:40:55;10.18;;;9.38;;
20567;SDS011;10442;49.932;11.592;2022-08-21T02:43:24;10.48;;;9.70;;
20567;SDS011;10442;49.932;11.592;2022-08-21T02:45:54;14.80;;;13.60;;
20567;SDS011;10442;49.932;11.592;2022-08-21T02:48:24;15.05;;;13.68;;
20567;SDS011;10442;49.932;11.592;2022-08-21T02:50:56;16.33;;;14.88;;
20567;SDS011;10442;49.932;11.592;2022-08-21T02:53:26;15.23;;;13.93;;
20567;SDS011;10442;49.932;11.592;2022-08-21T02:55:56;14.48;;;13.07;;
20567;SDS011;10442;49.932;11.592;2022-08-21T02:58:29;14.65;;;13.45;;
20567;SDS011;10442;49.932;11.592;2022-08-21T03:00:59;14.90;;;13.60;;
20567;SDS011;10442;49.932;11.592;2022-08-21T03:03:27;14.73;;;13.38;;
20567;SDS011;10442;49.932;11.592;2022-08-21T03:05:54;16.30;;;14.85;;
20567;SDS011;10442;49.932;11.592;2022-08-21T03:08:22;15.85;;;14.48;;
20567;SDS011;10442;49.932;11.592;2022-08-21T03:10:54;16.42;;;14.73;;
20567;SDS011;10442;49.932;11.592;2022-08-21T03:13:22;16.20;;;14.85;;
20567;SDS011;10442;49.932;11.592;2022-08-21T03:15:50;15.68;;;14.27;;
20567;SDS011;10442;49.932;11.592;2022-08-21T03:18:18;14.70;;;13.40;;
20567;SDS011;10442;49.932;11.592;2022-08-21T03:20:46;14.70;;;13.40;;
20567;SDS011;10442;49.932;11.592;2022-08-21T03:23:14;15.50;;;14.23;;
20567;SDS011;10442;49.932;11.592;2022-08-21T03:25:45;14.27;;;13.15;;
20567;SDS011;10442;49.932;11.592;2022-08-21T03:28:15;15.80;;;14.20;;
20567;SDS011;10442;49.932;11.592;2022-08-21T03:30:46;15.50;;;14.10;;
20567;SDS011;10442;49.932;11.592;2022-08-21T03:33:15;14.80;;;13.40;;
20567;SDS011;10442;49.932;11.592;2022-08-21T03:35:48;14.70;;;13.35;;
20567;SDS011;10442;49.932;11.592;2022-08-21T03:38:25;17.75;;;16.25;;
20567;SDS011;10442;49.932;11.592;2022-08-21T03:40:54;16.33;;;14.75;;
20567;SDS011;10442;49.932;11.592;2022-08-21T03:43:22;14.65;;;13.45;;
20567;SDS011;10442;49.932;11.592;2022-08-21T03:45:49;14.13;;;12.77;;
20567;SDS011;10442;49.932;11.592;2022-08-21T03:48:18;15.70;;;14.40;;
20567;SDS011;10442;49.932;11.592;2022-08-21T03:50:46;17.73;;;16.10;;
20567;SDS011;10442;49.932;11.592;2022-08-21T03:53:16;14.98;;;13.73;;
20567;SDS011;10442;49.932;11.592;2022-08-21T03:55:45;14.10;;;12.75;;
20567;SDS011;10442;49.932;11.592;2022-08-21T03:58:17;14.98;;;13.73;;
20567;SDS011;10442;49.932;11.592;2022-08-21T04:00:47;15.63;;;14.32;;
20567;SDS011;10442;49.932;11.592;2022-08-21T04:03:17;16.17;;;14.75;;
20567;SDS011;10442;49.932;11.592;2022-08-21T04:05:44;16.35;;;14.95;;
20567;SDS011;10442;49.932;11.592;2022-08-21T04:08:13;17.05;;;15.55;;
20567;SDS011;10442;49.932;11.592;2022-08-21T04:10:41;16.98;;;15.40;;
20567;SDS011;10442;49.932;11.592;2022-08-21T04:13:10;12.63;;;11.63;;
20567;SDS011;10442;49.932;11.592;2022-08-21T04:15:38;17.40;;;15.77;;
20567;SDS011;10442;49.932;11.592;2022-08-21T04:18:06;16.67;;;15.27;;
20567;SDS011;10442;49.932;11.592;2022-08-21T04:20:35;16.30;;;14.82;;
20567;SDS011;10442;49.932;11.592;2022-08-21T04:23:02;14.35;;;13.15;;
20567;SDS011;10442;49.932;11.592;2022-08-21T04:25:30;14.77;;;13.50;;
20567;SDS011;10442;49.932;11.592;2022-08-21T04:27:58;18.80;;;15.75;;
20567;SDS011;10442;49.932;11.592;2022-08-21T04:30:26;17.77;;;16.30;;
20567;SDS011;10442;49.932;11.592;2022-08-21T04:32:55;15.98;;;14.48;;
20567;SDS011;10442;49.932;11.592;2022-08-21T04:35:25;13.77;;;12.48;;
20567;SDS011;10442;49.932;11.592;2022-08-21T04:37:54;16.67;;;15.30;;
20567;SDS011;10442;49.932;11.592;2022-08-21T04:40:23;17.35;;;15.88;;
20567;SDS011;10442;49.932;11.592;2022-08-21T04:42:55;17.50;;;15.82;;
20567;SDS011;10442;49.932;11.592;2022-08-21T04:45:37;15.15;;;13.85;;
20567;SDS011;10442;49.932;11.592;2022-08-21T04:48:07;17.75;;;16.02;;
20567;SDS011;10442;49.932;11.592;2022-08-21T04:50:50;15.50;;;14.20;;
20567;SDS011;10442;49.932;11.592;2022-08-21T04:53:39;16.13;;;14.63;;
20567;SDS011;10442;49.932;11.592;2022-08-21T04:56:55;17.10;;;15.60;;
20567;SDS011;10442;49.932;11.592;2022-08-21T04:59:12;17.50;;;15.95;;
20567;SDS011;10442;49.932;11.592;2022-08-21T05:01:45;17.27;;;15.70;;
20567;SDS011;10442;49.932;11.592;2022-08-21T05:04:14;17.30;;;15.60;;
20567;SDS011;10442;49.932;11.592;2022-08-21T05:06:45;19.30;;;17.70;;
20567;SDS011;10442;49.932;11.592;2022-08-21T05:09:15;16.90;;;15.20;;
20567;SDS011;10442;49.932;11.592;2022-08-21T05:11:45;16.67;;;15.13;;
20567;SDS011;10442;49.932;11.592;2022-08-21T05:14:13;16.73;;;15.35;;
20567;SDS011;10442;49.932;11.592;2022-08-21T05:16:40;16.98;;;15.48;;
20567;SDS011;10442;49.932;11.592;2022-08-21T05:19:10;16.15;;;14.57;;
20567;SDS011;10442;49.932;11.592;2022-08-21T05:21:41;16.33;;;14.90;;
20567;SDS011;10442;49.932;11.592;2022-08-21T05:24:10;16.20;;;14.82;;
20567;SDS011;10442;49.932;11.592;2022-08-21T05:26:38;15.38;;;14.07;;
20567;SDS011;10442;49.932;11.592;2022-08-21T05:29:13;15.65;;;14.35;;
20567;SDS011;10442;49.932;11.592;2022-08-21T05:31:44;15.75;;;14.43;;
20567;SDS011;10442;49.932;11.592;2022-08-21T05:34:13;13.70;;;12.50;;
20567;SDS011;10442;49.932;11.592;2022-08-21T05:36:45;15.18;;;13.98;;
20567;SDS011;10442;49.932;11.592;2022-08-21T05:39:12;13.75;;;12.65;;
20567;SDS011;10442;49.932;11.592;2022-08-21T05:41:40;15.00;;;13.68;;
20567;SDS011;10442;49.932;11.592;2022-08-21T05:44:08;16.45;;;15.10;;
20567;SDS011;10442;49.932;11.592;2022-08-21T05:46:37;17.63;;;13.23;;
20567;SDS011;10442;49.932;11.592;2022-08-21T05:49:05;14.23;;;12.80;;
20567;SDS011;10442;49.932;11.592;2022-08-21T05:51:32;14.45;;;13.15;;
20567;SDS011;10442;49.932;11.592;2022-08-21T05:54:00;14.02;;;12.93;;
20567;SDS011;10442;49.932;11.592;2022-08-21T05:56:27;14.77;;;13.35;;
20567;SDS011;10442;49.932;11.592;2022-08-21T05:58:55;14.13;;;12.98;;
20567;SDS011;10442;49.932;11.592;2022-08-21T06:01:23;15.70;;;14.40;;
20567;SDS011;10442;49.932;11.592;2022-08-21T06:03:51;14.27;;;13.07;;
20567;SDS011;10442;49.932;11.592;2022-08-21T06:06:22;14.05;;;12.82;;
20567;SDS011;10442;49.932;11.592;2022-08-21T06:08:50;13.82;;;12.63;;
20567;SDS011;10442;49.932;11.592;2022-08-21T06:11:17;12.50;;;11.52;;
20567;SDS011;10442;49.932;11.592;2022-08-21T06:13:46;12.05;;;11.15;;
20567;SDS011;10442;49.932;11.592;2022-08-21T06:16:15;12.70;;;11.70;;
20567;SDS011;10442;49.932;11.592;2022-08-21T06:18:44;12.35;;;11.30;;
20567;SDS011;10442;49.932;11.592;2022-08-21T06:21:12;13.20;;;12.10;;
20567;SDS011;10442;49.932;11.592;2022-08-21T06:23:40;12.50;;;11.50;;
20567;SDS011;10442;49.932;11.592;2022-08-21T06:26:09;13.98;;;12.63;;
20567;SDS011;10442;49.932;11.592;2022-08-21T06:28:38;13.48;;;12.35;;
20567;SDS011;10442;49.932;11.592;2022-08-21T06:31:10;12.52;;;11.52;;
20567;SDS011;10442;49.932;11.592;2022-08-21T06:33:45;13.13;;;11.95;;
20567;SDS011;10442;49.932;11.592;2022-08-21T06:36:13;14.75;;;13.57;;
20567;SDS011;10442;49.932;11.592;2022-08-21T06:38:41;14.00;;;12.65;;
20567;SDS011;10442;49.932;11.592;2022-08-21T06:41:18;14.23;;;12.98;;
20567;SDS011;10442;49.932;11.592;2022-08-21T06:43:52;15.13;;;13.57;;
20567;SDS011;10442;49.932;11.592;2022-08-21T06:46:21;13.90;;;12.80;;
20567;SDS011;10442;49.932;11.592;2022-08-21T06:48:50;14.75;;;13.45;;
20567;SDS011;10442;49.932;11.592;2022-08-21T06:51:17;12.55;;;11.55;;
20567;SDS011;10442;49.932;11.592;2022-08-21T06:53:46;15.23;;;13.93;;
20567;SDS011;10442;49.932;11.592;2022-08-21T06:56:13;12.48;;;11.57;;
20567;SDS011;10442;49.932;11.592;2022-08-21T06:58:41;16.60;;;15.00;;
20567;SDS011;10442;49.932;11.592;2022-08-21T07:01:09;14.23;;;13.02;;
20567;SDS011;10442;49.932;11.592;2022-08-21T07:03:38;15.18;;;13.88;;
20567;SDS011;10442;49.932;11.592;2022-08-21T07:06:08;13.15;;;12.05;;
20567;SDS011;10442;49.932;11.592;2022-08-21T07:08:38;13.10;;;11.90;;
20567;SDS011;10442;49.932;11.592;2022-08-21T07:11:11;13.77;;;12.68;;
20567;SDS011;10442;49.932;11.592;2022-08-21T07:13:43;14.65;;;13.10;;
20567;SDS011;10442;49.932;11.592;2022-08-21T07:16:11;14.40;;;13.20;;
20567;SDS011;10442;49.932;11.592;2022-08-21T07:18:38;14.38;;;12.98;;
20567;SDS011;10442;49.932;11.592;2022-08-21T07:21:06;13.65;;;12.40;;
20567;SDS011;10442;49.932;11.592;2022-08-21T07:23:37;15.43;;;14.00;;
20567;SDS011;10442;49.932;11.592;2022-08-21T07:26:09;14.75;;;13.15;;
20567;SDS011;10442;49.932;11.592;2022-08-21T07:28:38;13.27;;;12.27;;
20567;SDS011;10442;49.932;11.592;2022-08-21T07:31:06;14.07;;;12.90;;
20567;SDS011;10442;49.932;11.592;2022-08-21T07:33:34;15.60;;;14.20;;
20567;SDS011;10442;49.932;11.592;2022-08-21T07:36:02;14.32;;;13.13;;
20567;SDS011;10442;49.932;11.592;2022-08-21T07:38:30;15.20;;;13.80;;
20567;SDS011;10442;49.932;11.592;2022-08-21T07:40:58;13.95;;;12.85;;
20567;SDS011;10442;49.932;11.592;2022-08-21T07:43:27;13.45;;;12.32;;
20567;SDS011;10442;49.932;11.592;2022-08-21T07:45:56;13.35;;;12.35;;
20567;SDS011;10442;49.932;11.592;2022-08-21T07:48:24;15.60;;;13.32;;
20567;SDS011;10442;49.932;11.592;2022-08-21T07:50:51;13.88;;;12.68;;
20567;SDS011;10442;49.932;11.592;2022-08-21T07:53:19;12.75;;;11.82;;
20567;SDS011;10442;49.932;11.592;2022-08-21T07:55:47;12.80;;;11.73;;
20567;SDS011;10442;49.932;11.592;2022-08-21T07:58:14;13.40;;;12.30;;
20567;SDS011;10442;49.932;11.592;2022-08-21T08:00:42;11.50;;;10.70;;
20567;SDS011;10442;49.932;11.592;2022-08-21T08:03:10;11.13;;;10.38;;
20567;SDS011;10442;49.932;11.592;2022-08-21T08:05:37;11.65;;;10.75;;
20567;SDS011;10442;49.932;11.592;2022-08-21T08:08:06;11.88;;;10.95;;
20567;SDS011;10442;49.932;11.592;2022-08-21T08:10:33;11.27;;;10.48;;
20567;SDS011;10442;49.932;11.592;2022-08-21T08:13:02;11.38;;;10.40;;
20567;SDS011;10442;49.932;11.592;2022-08-21T08:15:30;11.75;;;10.90;;
20567;SDS011;10442;49.932;11.592;2022-08-21T08:18:03;12.88;;;11.88;;
20567;SDS011;10442;49.932;11.592;2022-08-21T08:20:31;11.95;;;10.93;;
20567;SDS011;10442;49.932;11.592;2022-08-21T08:22:58;12.15;;;11.23;;
20567;SDS011;10442;49.932;11.592;2022-08-21T08:25:27;11.88;;;10.88;;
20567;SDS011;10442;49.932;11.592;2022-08-21T08:28:03;11.43;;;10.25;;
20567;SDS011;10442;49.932;11.592;2022-08-21T08:30:42;10.98;;;10.15;;
20567;SDS011;10442;49.932;11.592;2022-08-21T08:33:10;10.77;;;9.80;;
20567;SDS011;10442;49.932;11.592;2022-08-21T08:35:37;11.98;;;10.98;;
20567;SDS011;10442;49.932;11.592;2022-08-21T08:38:07;11.07;;;10.18;;
20567;SDS011;10442;49.932;11.592;2022-08-21T08:41:17;12.02;;;11.02;;
20567;SDS011;10442;49.932;11.592;2022-08-21T08:43:29;11.57;;;10.77;;
20567;SDS011;10442;49.932;11.592;2022-08-21T08:45:59;11.88;;;10.82;;
20567;SDS011;10442;49.932;11.592;2022-08-21T08:51:46;11.75;;;10.60;;
20567;SDS011;10442;49.932;11.592;2022-08-21T08:54:25;11.48;;;10.55;;
20567;SDS011;10442;49.932;11.592;2022-08-21T08:57:07;10.38;;;9.60;;
20567;SDS011;10442;49.932;11.592;2022-08-21T08:59:40;9.77;;;9.07;;
20567;SDS011;10442;49.932;11.592;2022-08-21T09:02:12;10.77;;;10.00;;
20567;SDS011;10442;49.932;11.592;2022-08-21T09:04:41;11.10;;;10.23;;
20567;SDS011;10442;49.932;11.592;2022-08-21T09:12:39;10.48;;;9.68;;
20567;SDS011;10442;49.932;11.592;2022-08-21T09:15:20;10.20;;;9.30;;
20567;SDS011;10442;49.932;11.592;2022-08-21T09:18:16;9.30;;;8.68;;
20567;SDS011;10442;49.932;11.592;2022-08-21T09:26:38;8.98;;;8.32;;
20567;SDS011;10442;49.932;11.592;2022-08-21T09:29:13;8.90;;;8.20;;
20567;SDS011;10442;49.932;11.592;2022-08-21T09:31:43;11.15;;;10.15;;
20567;SDS011;10442;49.932;11.592;2022-08-21T09:34:12;9.45;;;8.75;;
20567;SDS011;10442;49.932;11.592;2022-08-21T09:36:50;9.63;;;8.82;;
20567;SDS011;10442;49.932;11.592;2022-08-21T09:42:04;8.95;;;8.25;;
20567;SDS011;10442;49.932;11.592;2022-08-21T09:44:36;8.35;;;7.75;;
20567;SDS011;10442;49.932;11.592;2022-08-21T09:47:10;8.15;;;7.57;;
20567;SDS011;10442;49.932;11.592;2022-08-21T09:49:41;7.93;;;7.13;;
20567;SDS011;10442;49.932;11.592;2022-08-21T09:52:21;7.75;;;7.05;;
20567;SDS011;10442;49.932;11.592;2022-08-21T09:54:52;7.40;;;6.90;;
20567;SDS011;10442;49.932;11.592;2022-08-21T09:57:23;7.38;;;6.45;;
20567;SDS011;10442;49.932;11.592;2022-08-21T10:02:49;7.22;;;6.72;;
20567;SDS011;10442;49.932;11.592;2022-08-21T10:05:21;7.28;;;6.68;;
20567;SDS011;10442;49.932;11.592;2022-08-21T10:07:52;7.07;;;6.57;;
20567;SDS011;10442;49.932;11.592;2022-08-21T10:10:22;7.03;;;6.40;;
20567;SDS011;10442;49.932;11.592;2022-08-21T10:13:00;7.40;;;6.82;;
20567;SDS011;10442;49.932;11.592;2022-08-21T10:18:26;4.90;;;4.60;;
20567;SDS011;10442;49.932;11.592;2022-08-21T10:21:01;5.82;;;5.32;;
20567;SDS011;10442;49.932;11.592;2022-08-21T10:26:31;5.03;;;4.68;;
20567;SDS011;10442;49.932;11.592;2022-08-21T10:29:41;6.47;;;6.07;;
20567;SDS011;10442;49.932;11.592;2022-08-21T10:32:29;6.13;;;5.72;;
20567;SDS011;10442;49.932;11.592;2022-08-21T10:35:18;5.40;;;5.00;;
20567;SDS011;10442;49.932;11.592;2022-08-21T10:38:03;4.95;;;4.63;;
20567;SDS011;10442;49.932;11.592;2022-08-21T10:41:07;6.45;;;4.85;;
20567;SDS011;10442;49.932;11.592;2022-08-21T10:44:30;4.00;;;3.70;;
20567;SDS011;10442;49.932;11.592;2022-08-21T10:47:03;4.93;;;4.43;;
20567;SDS011;10442;49.932;11.592;2022-08-21T10:52:29;4.55;;;4.22;;
20567;SDS011;10442;49.932;11.592;2022-08-21T10:55:17;5.57;;;5.07;;
20567;SDS011;10442;49.932;11.592;2022-08-21T10:57:54;4.72;;;4.43;;
20567;SDS011;10442;49.932;11.592;2022-08-21T11:00:27;5.07;;;4.70;;
20567;SDS011;10442;49.932;11.592;2022-08-21T11:06:24;4.57;;;4.18;;
20567;SDS011;10442;49.932;11.592;2022-08-21T11:09:11;3.80;;;3.50;;
20567;SDS011;10442;49.932;11.592;2022-08-21T11:12:05;4.25;;;3.85;;
20567;SDS011;10442;49.932;11.592;2022-08-21T11:20:44;3.58;;;3.38;;
20567;SDS011;10442;49.932;11.592;2022-08-21T11:23:20;3.50;;;3.20;;
20567;SDS011;10442;49.932;11.592;2022-08-21T11:25:58;3.70;;;3.47;;
20567;SDS011;10442;49.932;11.592;2022-08-21T11:28:33;3.72;;;3.53;;
20567;SDS011;10442;49.932;11.592;2022-08-21T11:39:58;3.90;;;3.60;;
20567;SDS011;10442;49.932;11.592;2022-08-21T11:42:45;3.40;;;3.20;;
20567;SDS011;10442;49.932;11.592;2022-08-21T11:45:26;3.28;;;3.08;;
20567;SDS011;10442;49.932;11.592;2022-08-21T11:51:20;3.28;;;3.08;;
20567;SDS011;10442;49.932;11.592;2022-08-21T11:54:07;4.20;;;3.70;;
20567;SDS011;10442;49.932;11.592;2022-08-21T11:56:57;3.13;;;2.92;;
20567;SDS011;10442;49.932;11.592;2022-08-21T12:02:40;3.22;;;3.03;;
20567;SDS011;10442;49.932;11.592;2022-08-21T12:05:24;3.00;;;2.83;;
20567;SDS011;10442;49.932;11.592;2022-08-21T12:08:14;3.15;;;2.95;;
20567;SDS011;10442;49.932;11.592;2022-08-21T12:11:01;3.28;;;3.08;;
20567;SDS011;10442;49.932;11.592;2022-08-21T12:13:38;4.45;;;3.60;;
20567;SDS011;10442;49.932;11.592;2022-08-21T12:16:33;3.85;;;3.60;;
20567;SDS011;10442;49.932;11.592;2022-08-21T12:19:06;3.28;;;3.08;;
20567;SDS011;10442;49.932;11.592;2022-08-21T12:21:52;3.50;;;3.30;;
20567;SDS011;10442;49.932;11.592;2022-08-21T12:26:58;4.97;;;4.47;;
20567;SDS011;10442;49.932;11.592;2022-08-21T12:29:43;4.00;;;3.75;;
20567;SDS011;10442;49.932;11.592;2022-08-21T12:34:48;3.42;;;3.22;;
20567;SDS011;10442;49.932;11.592;2022-08-21T12:38:17;4.03;;;3.80;;
20567;SDS011;10442;49.932;11.592;2022-08-21T12:40:52;4.15;;;3.67;;
20567;SDS011;10442;49.932;11.592;2022-08-21T12:43:46;4.03;;;3.72;;
20567;SDS011;10442;49.932;11.592;2022-08-21T12:49:14;3.60;;;3.38;;
20567;SDS011;10442;49.932;11.592;2022-08-21T12:51:48;3.88;;;3.58;;
20567;SDS011;10442;49.932;11.592;2022-08-21T12:54:29;3.45;;;3.25;;
20567;SDS011;10442;49.932;11.592;2022-08-21T12:57:03;3.88;;;3.67;;
20567;SDS011;10442;49.932;11.592;2022-08-21T12:59:36;4.13;;;3.83;;
20567;SDS011;10442;49.932;11.592;2022-08-21T13:02:11;3.88;;;3.67;;
20567;SDS011;10442;49.932;11.592;2022-08-21T13:04:45;4.25;;;3.85;;
20567;SDS011;10442;49.932;11.592;2022-08-21T13:07:15;3.40;;;3.13;;
20567;SDS011;10442;49.932;11.592;2022-08-21T13:09:54;3.45;;;3.22;;
20567;SDS011;10442;49.932;11.592;2022-08-21T13:12:23;3.03;;;2.80;;
20567;SDS011;10442;49.932;11.592;2022-08-21T13:14:59;3.28;;;3.08;;
20567;SDS011;10442;49.932;11.592;2022-08-21T13:17:36;2.63;;;2.42;;
20567;SDS011;10442;49.932;11.592;2022-08-21T13:20:08;3.42;;;3.10;;
20567;SDS011;10442;49.932;11.592;2022-08-21T13:22:47;6.32;;;3.20;;
20567;SDS011;10442;49.932;11.592;2022-08-21T13:25:16;3.20;;;3.00;;
20567;SDS011;10442;49.932;11.592;2022-08-21T13:28:01;3.35;;;3.15;;
20567;SDS011;10442;49.932;11.592;2022-08-21T13:30:34;3.67;;;3.33;;
20567;SDS011;10442;49.932;11.592;2022-08-21T13:33:05;3.55;;;3.33;;
20567;SDS011;10442;49.932;11.592;2022-08-21T13:35:46;3.45;;;3.25;;
20567;SDS011;10442;49.932;11.592;2022-08-21T13:38:27;3.70;;;2.90;;
20567;SDS011;10442;49.932;11.592;2022-08-21T13:41:01;3.42;;;3.22;;
20567;SDS011;10442;49.932;11.592;2022-08-21T13:43:32;3.47;;;3.22;;
20567;SDS011;10442;49.932;11.592;2022-08-21T13:46:06;3.85;;;3.47;;
20567;SDS011;10442;49.932;11.592;2022-08-21T13:48:36;3.97;;;3.67;;
20567;SDS011;10442;49.932;11.592;2022-08-21T13:51:05;3.50;;;3.30;;
20567;SDS011;10442;49.932;11.592;2022-08-21T13:56:03;3.25;;;3.05;;
20567;SDS011;10442;49.932;11.592;2022-08-21T13:58:42;3.40;;;3.13;;
20567;SDS011;10442;49.932;11.592;2022-08-21T14:01:18;2.97;;;2.78;;
20567;SDS011;10442;49.932;11.592;2022-08-21T14:04:07;3.85;;;2.90;;
20567;SDS011;10442;49.932;11.592;2022-08-21T14:06:46;3.42;;;2.65;;
20567;SDS011;10442;49.932;11.592;2022-08-21T14:12:12;3.25;;;3.00;;
20567;SDS011;10442;49.932;11.592;2022-08-21T14:14:49;3.13;;;2.92;;
20567;SDS011;10442;49.932;11.592;2022-08-21T14:20:05;3.20;;;3.00;;
20567;SDS011;10442;49.932;11.592;2022-08-21T14:25:12;2.95;;;2.75;;
20567;SDS011;10442;49.932;11.592;2022-08-21T14:27:43;2.75;;;2.63;;
20567;SDS011;10442;49.932;11.592;2022-08-21T14:32:55;3.42;;;3.22;;
20567;SDS011;10442;49.932;11.592;2022-08-21T14:35:23;3.92;;;3.38;;
20567;SDS011;10442;49.932;11.592;2022-08-21T14:37:51;2.83;;;2.63;;
20567;SDS011;10442;49.932;11.592;2022-08-21T14:40:21;2.92;;;2.75;;
20567;SDS011;10442;49.932;11.592;2022-08-21T14:42:50;3.63;;;3.33;;
20567;SDS011;10442;49.932;11.592;2022-08-21T14:45:20;2.42;;;2.28;;
20567;SDS011;10442;49.932;11.592;2022-08-21T14:47:54;3.03;;;2.83;;
20567;SDS011;10442;49.932;11.592;2022-08-21T14:50:22;2.97;;;2.78;;
20567;SDS011;10442;49.932;11.592;2022-08-21T14:52:54;3.35;;;3.15;;
20567;SDS011;10442;49.932;11.592;2022-08-21T14:55:22;4.07;;;3.72;;
20567;SDS011;10442;49.932;11.592;2022-08-21T14:57:50;3.00;;;2.80;;
20567;SDS011;10442;49.932;11.592;2022-08-21T15:00:20;3.13;;;2.92;;
20567;SDS011;10442;49.932;11.592;2022-08-21T15:03:02;2.65;;;2.45;;
20567;SDS011;10442;49.932;11.592;2022-08-21T15:05:29;2.88;;;2.67;;
20567;SDS011;10442;49.932;11.592;2022-08-21T15:08:00;2.88;;;2.67;;
20567;SDS011;10442;49.932;11.592;2022-08-21T15:10:29;2.70;;;2.50;;
20567;SDS011;10442;49.932;11.592;2022-08-21T15:12:59;2.80;;;2.60;;
20567;SDS011;10442;49.932;11.592;2022-08-21T15:15:29;3.00;;;2.80;;
20567;SDS011;10442;49.932;11.592;2022-08-21T15:18:00;2.63;;;2.40;;
20567;SDS011;10442;49.932;11.592;2022-08-21T15:20:28;3.13;;;2.83;;
20567;SDS011;10442;49.932;11.592;2022-08-21T15:22:56;3.10;;;2.90;;
20567;SDS011;10442;49.932;11.592;2022-08-21T15:25:23;3.15;;;2.90;;
20567;SDS011;10442;49.932;11.592;2022-08-21T15:27:51;2.78;;;2.58;;
20567;SDS011;10442;49.932;11.592;2022-08-21T15:30:19;3.30;;;3.10;;
20567;SDS011;10442;49.932;11.592;2022-08-21T15:32:46;2.90;;;2.70;;
20567;SDS011;10442;49.932;11.592;2022-08-21T15:35:14;3.05;;;2.85;;
20567;SDS011;10442;49.932;11.592;2022-08-21T15:37:43;3.40;;;3.20;;
20567;SDS011;10442;49.932;11.592;2022-08-21T15:40:10;3.80;;;2.72;;
20567;SDS011;10442;49.932;11.592;2022-08-21T15:42:38;2.47;;;2.33;;
20567;SDS011;10442;49.932;11.592;2022-08-21T15:45:07;3.13;;;2.92;;
20567;SDS011;10442;49.932;11.592;2022-08-21T15:47:38;2.53;;;2.42;;
20567;SDS011;10442;49.932;11.592;2022-08-21T15:50:11;3.25;;;3.05;;
20567;SDS011;10442;49.932;11.592;2022-08-21T15:52:39;2.67;;;2.47;;
20567;SDS011;10442;49.932;11.592;2022-08-21T15:55:07;2.78;;;2.58;;
20567;SDS011;10442;49.932;11.592;2022-08-21T15:57:36;3.00;;;2.80;;
20567;SDS011;10442;49.932;11.592;2022-08-21T16:00:11;3.53;;;3.22;;
20567;SDS011;10442;49.932;11.592;2022-08-21T16:02:42;3.53;;;3.08;;